Time;durP1;ratioP1;P1;durP2;ratioP2;P2;SDS_P1;SDS_P2;PMS_P1;PMS_P2;Temp;Humidity;BMP_temperature;BMP_pressure;BME280_temperature;BME280_humidity;BME280_pressure;Samples;Min_cycle;Max_cycle;Signal;HPM_P1;HPM_P2
2021/03/16 00:00:36;;;;;;;45.20;37.30;;;;;;;20.03;49.39;100632.44;2099213;28;20126;-68
2021/03/16 00:01:36;;;;;;;45.53;37.13;;;;;;;20.03;49.27;100637.06;2099316;28;20096;-68
2021/03/16 00:02:37;;;;;;;43.00;34.47;;;;;;;20.03;49.38;100626.13;2099269;28;20025;-68
2021/03/16 00:03:39;;;;;;;45.17;37.10;;;;;;;20.02;49.35;100641.69;2099161;28;20440;-68
2021/03/16 00:04:39;;;;;;;47.00;36.95;;;;;;;20.01;49.29;100634.47;2099127;28;20046;-68
2021/03/16 00:05:40;;;;;;;44.97;37.00;;;;;;;20.00;49.41;100637.38;2099178;28;20021;-68
2021/03/16 00:06:40;;;;;;;42.33;35.23;;;;;;;19.99;49.29;100633.78;2098851;28;20040;-67
2021/03/16 00:07:40;;;;;;;43.10;34.80;;;;;;;19.98;49.51;100633.91;2099220;28;20051;-68
2021/03/16 00:08:44;;;;;;;45.23;36.97;;;;;;;19.97;49.38;100633.03;2098999;28;20100;-68
2021/03/16 00:09:44;;;;;;;44.83;35.22;;;;;;;19.95;49.54;100646.00;2099122;28;20039;-68
2021/03/16 00:10:45;;;;;;;39.93;33.60;;;;;;;19.93;49.44;100642.53;2099169;28;20016;-69
2021/03/16 00:11:45;;;;;;;43.53;36.23;;;;;;;19.93;49.62;100631.59;2099061;28;20371;-68
2021/03/16 00:12:46;;;;;;;42.77;35.43;;;;;;;19.92;49.52;100643.56;2099061;28;20396;-68
2021/03/16 00:13:46;;;;;;;44.63;35.20;;;;;;;19.91;49.50;100639.06;2099156;28;20091;-68
2021/03/16 00:14:46;;;;;;;44.30;34.43;;;;;;;19.91;49.62;100641.81;2099074;28;20017;-67
2021/03/16 00:15:47;;;;;;;42.37;35.17;;;;;;;19.89;49.70;100641.06;2099087;28;20023;-68
2021/03/16 00:16:47;;;;;;;45.23;36.03;;;;;;;19.89;49.58;100646.53;2090053;28;20044;-68
2021/03/16 00:17:48;;;;;;;43.80;35.57;;;;;;;19.87;49.64;100640.38;2090331;28;20017;-68
2021/03/16 00:18:48;;;;;;;42.30;35.23;;;;;;;19.87;49.72;100643.13;2098968;28;20028;-68
2021/03/16 00:19:49;;;;;;;47.43;37.40;;;;;;;19.86;49.64;100646.84;2090007;28;20082;-68
2021/03/16 00:20:52;;;;;;;41.40;34.75;;;;;;;19.85;49.81;100647.84;2081724;28;20589;-68
2021/03/16 00:21:52;;;;;;;41.17;35.22;;;;;;;19.84;49.81;100640.63;2090141;28;20055;-68
2021/03/16 00:22:52;;;;;;;41.20;33.97;;;;;;;19.84;49.70;100644.25;2098960;28;20028;-68
2021/03/16 00:23:53;;;;;;;42.03;34.60;;;;;;;19.83;49.70;100641.66;2098992;28;20021;-68
2021/03/16 00:24:54;;;;;;;43.87;34.73;;;;;;;19.83;49.74;100639.78;2099355;28;20345;-69
2021/03/16 00:25:54;;;;;;;41.90;34.33;;;;;;;19.85;49.71;100645.13;2098874;28;20109;-68
2021/03/16 00:26:55;;;;;;;45.80;36.30;;;;;;;19.83;49.68;100637.03;2099178;28;20032;-68
2021/03/16 00:27:55;;;;;;;42.73;34.73;;;;;;;19.82;49.81;100642.66;2099096;28;20482;-68
2021/03/16 00:28:56;;;;;;;40.37;33.00;;;;;;;19.82;49.74;100639.91;2099055;28;20031;-68
2021/03/16 00:29:56;;;;;;;42.93;34.93;;;;;;;19.81;49.77;100654.59;2099236;28;20028;-69
2021/03/16 00:30:57;;;;;;;42.40;35.17;;;;;;;19.80;49.79;100647.41;2099000;28;20089;-69
2021/03/16 00:31:57;;;;;;;41.43;34.13;;;;;;;19.80;49.73;100645.53;2098844;28;20055;-69
2021/03/16 00:32:58;;;;;;;38.17;32.33;;;;;;;19.79;49.78;100645.66;2099083;28;20532;-69
2021/03/16 00:33:58;;;;;;;40.37;34.43;;;;;;;19.80;49.87;100644.69;2098923;28;20475;-69
2021/03/16 00:34:59;;;;;;;43.57;35.47;;;;;;;19.80;49.78;100642.81;2099174;28;20028;-69
2021/03/16 00:35:59;;;;;;;42.83;34.23;;;;;;;19.80;49.81;100647.41;2099107;28;20473;-69
2021/03/16 00:37:00;;;;;;;43.40;34.57;;;;;;;19.80;49.87;100650.16;2098886;28;20024;-69
2021/03/16 00:38:01;;;;;;;40.53;33.90;;;;;;;19.79;50.00;100641.06;2098889;28;20021;-69
2021/03/16 00:39:08;;;;;;;44.80;34.63;;;;;;;19.79;49.87;100653.88;2098823;28;20450;-70
2021/03/16 00:40:10;;;;;;;40.13;34.60;;;;;;;19.80;49.78;100641.94;2098947;28;20035;-69
2021/03/16 00:41:10;;;;;;;39.33;31.83;;;;;;;19.80;49.81;100652.88;2098769;28;20060;-69
2021/03/16 00:42:10;;;;;;;42.53;34.27;;;;;;;19.79;49.77;100645.66;2098970;28;20028;-69
2021/03/16 00:43:11;;;;;;;42.67;31.63;;;;;;;19.77;49.92;100645.84;2098823;28;20048;-70
2021/03/16 00:44:11;;;;;;;40.87;33.33;;;;;;;19.77;49.93;100642.22;2098825;28;20028;-70
2021/03/16 00:45:13;;;;;;;41.83;33.83;;;;;;;19.78;49.94;100649.44;2098855;28;20063;-69
2021/03/16 00:46:13;;;;;;;39.35;32.47;;;;;;;19.77;49.89;100647.69;2098746;28;20059;-69
2021/03/16 00:47:14;;;;;;;42.17;34.60;;;;;;;19.77;49.88;100653.16;2098807;28;20024;-69
2021/03/16 00:48:16;;;;;;;41.33;33.43;;;;;;;19.75;49.82;100644.25;2098896;28;20055;-69
2021/03/16 00:49:16;;;;;;;39.35;32.17;;;;;;;19.75;49.88;100650.56;2098671;28;20437;-69
2021/03/16 00:50:17;;;;;;;42.47;33.87;;;;;;;19.74;49.81;100647.97;2098847;28;20020;-70
2021/03/16 00:51:17;;;;;;;40.77;32.30;;;;;;;19.74;49.90;100645.22;2098721;28;20390;-69
2021/03/16 00:52:18;;;;;;;41.80;32.40;;;;;;;19.75;49.77;100655.19;2098745;28;20396;-69
2021/03/16 00:53:18;;;;;;;39.57;32.77;;;;;;;19.73;49.90;100646.25;2098687;28;20024;-69
2021/03/16 00:54:18;;;;;;;39.60;33.10;;;;;;;19.72;49.88;100642.66;2098741;28;20025;-70
2021/03/16 00:55:19;;;;;;;37.47;31.37;;;;;;;19.74;49.91;100647.97;2098667;28;20072;-69
2021/03/16 00:56:20;;;;;;;41.53;35.10;;;;;;;19.72;50.00;100647.25;2098835;28;20020;-69
2021/03/16 00:57:20;;;;;;;36.60;30.43;;;;;;;19.72;49.89;100648.13;2098754;28;20088;-69
2021/03/16 00:58:25;;;;;;;41.87;33.10;;;;;;;19.72;49.96;100655.44;2098774;28;20379;-69
2021/03/16 00:59:25;;;;;;;38.20;31.17;;;;;;;19.70;49.90;100651.00;2098693;28;20112;-69
2021/03/16 01:00:26;;;;;;;42.37;32.47;;;;;;;19.70;49.99;100658.34;2098841;28;20028;-69
2021/03/16 01:01:32;;;;;;;40.87;32.50;;;;;;;19.68;49.99;100652.13;2098711;28;20112;-69
2021/03/16 01:02:33;;;;;;;40.30;32.47;;;;;;;19.66;50.03;100652.22;2098446;28;20069;-69
2021/03/16 01:03:34;;;;;;;39.70;30.73;;;;;;;19.66;50.01;100652.22;2098646;28;20097;-69
2021/03/16 01:04:35;;;;;;;41.25;31.60;;;;;;;19.65;50.09;100656.00;2098574;28;20087;-69
2021/03/16 01:05:35;;;;;;;37.10;30.50;;;;;;;19.64;50.12;100654.25;2098547;28;20025;-69
2021/03/16 01:06:36;;;;;;;42.43;33.20;;;;;;;19.64;49.99;100656.97;2098873;28;20029;-69
2021/03/16 01:07:36;;;;;;;37.97;29.60;;;;;;;19.65;50.11;100655.13;2098657;28;20131;-69
2021/03/16 01:08:37;;;;;;;38.27;30.70;;;;;;;19.65;50.06;100661.47;2098775;28;20387;-69
2021/03/16 01:09:37;;;;;;;36.83;30.57;;;;;;;19.66;49.98;100660.44;2098871;28;20375;-69
2021/03/16 01:10:38;;;;;;;41.90;32.00;;;;;;;19.65;50.13;100656.00;2090032;28;20055;-69
2021/03/16 01:11:38;;;;;;;36.87;30.73;;;;;;;19.64;50.02;100651.50;2089975;28;20033;-69
2021/03/16 01:12:40;;;;;;;40.43;32.27;;;;;;;19.65;50.02;100656.00;2098676;28;20148;-69
2021/03/16 01:13:40;;;;;;;41.03;32.60;;;;;;;19.67;50.01;100654.00;2098685;28;20036;-69
2021/03/16 01:14:41;;;;;;;38.83;31.67;;;;;;;19.66;50.08;100663.19;2098699;28;20029;-69
2021/03/16 01:15:41;;;;;;;38.47;30.77;;;;;;;19.66;50.04;100652.22;2098961;28;20158;-69
2021/03/16 01:16:44;;;;;;;39.13;31.77;;;;;;;19.67;50.04;100656.75;2098690;28;20335;-69
2021/03/16 01:17:45;;;;;;;40.47;32.35;;;;;;;19.65;50.05;100661.47;2098529;28;20021;-69
2021/03/16 01:18:45;;;;;;;39.37;33.47;;;;;;;19.64;50.10;100659.72;2098503;28;20111;-70
2021/03/16 01:19:46;;;;;;;39.93;33.63;;;;;;;19.64;50.02;100661.59;2098667;28;20104;-69
2021/03/16 01:20:47;;;;;;;42.57;34.10;;;;;;;19.65;50.10;100658.72;2098465;28;20455;-69
2021/03/16 01:21:47;;;;;;;40.40;33.47;;;;;;;19.64;50.16;100658.84;2098731;28;20082;-69
2021/03/16 01:22:48;;;;;;;39.70;33.07;;;;;;;19.64;50.15;100659.72;2098591;28;20027;-69
2021/03/16 01:23:48;;;;;;;39.20;33.27;;;;;;;19.63;50.13;100660.72;2098599;28;20062;-69
2021/03/16 01:24:48;;;;;;;43.07;34.03;;;;;;;19.64;50.17;100664.31;2098539;28;20103;-69
2021/03/16 01:25:49;;;;;;;42.03;33.67;;;;;;;19.63;50.17;100663.47;2098608;28;20484;-69
2021/03/16 01:26:49;;;;;;;39.83;31.17;;;;;;;19.62;50.14;100661.75;2098510;28;20090;-69
2021/03/16 01:27:50;;;;;;;40.40;32.33;;;;;;;19.63;50.09;100668.94;2098480;28;20031;-70
2021/03/16 01:28:50;;;;;;;44.97;34.50;;;;;;;19.62;50.11;100661.75;2098438;28;20028;-70
2021/03/16 01:29:54;;;;;;;37.20;29.50;;;;;;;19.62;50.25;100664.47;2098445;28;20032;-70
2021/03/16 01:30:54;;;;;;;39.95;33.35;;;;;;;19.62;50.10;100660.84;2098443;28;20082;-69
2021/03/16 01:31:56;;;;;;;41.20;33.50;;;;;;;19.61;50.14;100660.00;2098592;28;20074;-69
2021/03/16 01:32:56;;;;;;;40.03;34.10;;;;;;;19.62;50.14;100664.47;2098630;28;20490;-69
2021/03/16 01:33:57;;;;;;;39.63;32.73;;;;;;;19.60;50.23;100662.88;2098573;28;20414;-69
2021/03/16 01:34:57;;;;;;;35.83;30.77;;;;;;;19.60;50.27;100661.00;2098343;28;20463;-69
2021/03/16 01:35:58;;;;;;;38.63;32.40;;;;;;;19.61;50.16;100670.94;2098408;28;20139;-69
2021/03/16 01:36:59;;;;;;;38.75;32.80;;;;;;;19.59;50.11;100666.63;2098442;28;20446;-69
2021/03/16 01:37:59;;;;;;;38.30;31.70;;;;;;;19.59;50.24;100662.00;2097975;28;20402;-70
2021/03/16 01:39:00;;;;;;;36.73;30.80;;;;;;;19.58;50.16;100665.75;2098531;28;20436;-69
2021/03/16 01:40:00;;;;;;;37.90;30.93;;;;;;;19.59;50.36;100667.47;2098507;28;20086;-70
2021/03/16 01:41:01;;;;;;;37.90;31.33;;;;;;;19.59;50.18;100663.88;2098561;28;20028;-70
2021/03/16 01:42:02;;;;;;;39.30;31.43;;;;;;;19.58;50.19;100665.75;2098499;28;20435;-70
2021/03/16 01:43:16;;;;;;;36.93;30.10;;;;;;;19.57;50.17;100669.47;2098316;28;20032;-69
2021/03/16 01:44:17;;;;;;;37.67;29.67;;;;;;;19.56;50.21;100670.50;2098516;28;20024;-70
2021/03/16 01:45:17;;;;;;;37.87;31.57;;;;;;;19.56;50.26;100666.91;2098442;28;20081;-69
2021/03/16 01:46:18;;;;;;;36.00;30.60;;;;;;;19.55;50.22;100670.63;2098312;28;20024;-69
2021/03/16 01:47:21;;;;;;;35.50;29.27;;;;;;;19.55;50.25;100668.78;2098392;28;20103;-69
2021/03/16 01:48:36;;;;;;;39.25;32.20;;;;;;;19.54;50.27;100664.28;2098447;28;20261;-70
2021/03/16 01:49:37;;;;;;;36.50;29.67;;;;;;;19.52;50.31;100666.28;2098468;28;20027;-70
2021/03/16 01:50:40;;;;;;;36.13;30.60;;;;;;;19.53;50.28;100667.19;2098279;28;20388;-69
2021/03/16 01:51:40;;;;;;;37.05;30.80;;;;;;;19.54;50.27;100679.84;2098286;28;20066;-69
2021/03/16 01:52:42;;;;;;;36.93;30.60;;;;;;;19.51;50.31;100670.03;2098416;28;20024;-70
2021/03/16 01:53:43;;;;;;;35.67;29.90;;;;;;;19.52;50.32;100676.38;2098460;28;20020;-70
2021/03/16 01:54:44;;;;;;;34.77;29.13;;;;;;;19.51;50.42;100680.97;2098439;28;20021;-69
2021/03/16 01:55:46;;;;;;;36.97;29.45;;;;;;;19.52;50.38;100670.91;2098457;28;20020;-70
2021/03/16 01:56:48;;;;;;;35.00;28.75;;;;;;;19.51;50.41;100674.66;2098449;28;20179;-69
2021/03/16 01:57:52;;;;;;;37.03;29.23;;;;;;;19.51;50.35;100677.38;2098404;28;20028;-70
2021/03/16 01:58:56;;;;;;;37.03;30.55;;;;;;;19.49;50.39;100672.06;2098245;28;20471;-70
2021/03/16 01:59:57;;;;;;;36.25;28.75;;;;;;;19.49;50.44;100672.06;2098127;28;20169;-70
2021/03/16 02:00:57;;;;;;;37.90;28.98;;;;;;;19.48;50.50;100676.66;2098282;28;20026;-70
2021/03/16 02:01:58;;;;;;;36.40;30.37;;;;;;;19.49;50.46;100683.00;2098240;28;20024;-69
2021/03/16 02:02:58;;;;;;;35.20;29.00;;;;;;;19.48;50.46;100675.81;2098413;28;20082;-70
2021/03/16 02:03:59;;;;;;;37.83;31.17;;;;;;;19.47;50.44;100674.91;2098242;28;20020;-69
2021/03/16 02:05:10;;;;;;;34.57;28.60;;;;;;;19.47;50.43;100668.59;2098388;28;20024;-70
2021/03/16 02:06:17;;;;;;;35.45;28.95;;;;;;;19.46;50.44;100673.19;2098263;28;20052;-70
2021/03/16 02:07:33;;;;;;;36.67;29.98;;;;;;;19.47;50.44;100671.31;2098110;28;20183;-70
2021/03/16 02:08:47;;;;;;;36.03;28.98;;;;;;;19.47;50.38;100676.78;2098334;28;20031;-69
2021/03/16 02:09:58;;;;;;;32.42;27.45;;;;;;;19.46;50.51;100678.66;2089277;28;20095;-69
2021/03/16 02:11:18;;;;;;;34.97;29.23;;;;;;;19.47;50.51;100668.59;2090920;28;20099;-70
2021/03/16 02:12:34;;;;;;;36.55;29.92;;;;;;;19.45;50.53;100671.47;2098292;28;20032;-69
2021/03/16 02:13:41;;;;;;;36.53;28.95;;;;;;;19.44;50.50;100667.00;2089353;28;20102;-70
2021/03/16 02:14:50;;;;;;;35.60;29.88;;;;;;;19.44;50.51;100669.72;2089961;28;20423;-69
2021/03/16 02:15:56;;;;;;;36.92;28.55;;;;;;;19.44;50.50;100664.25;2098270;28;20028;-69
2021/03/16 02:17:05;;;;;;;34.10;26.50;;;;;;;19.44;50.46;100671.59;2098338;28;20024;-70
2021/03/16 02:18:13;;;;;;;36.08;29.20;;;;;;;19.43;50.42;100667.16;2098260;28;20056;-69
2021/03/16 02:19:29;;;;;;;36.03;28.85;;;;;;;19.43;50.44;100662.53;2091587;28;20033;-70
2021/03/16 02:20:54;;;;;;;33.55;28.23;;;;;;;19.43;50.47;100662.53;2089714;28;20144;-70
2021/03/16 02:21:55;;;;;;;37.05;28.23;;;;;;;19.43;50.55;100667.16;2089931;28;20056;-70
2021/03/16 02:22:57;;;;;;;33.97;27.40;;;;;;;19.42;50.53;100665.41;2089822;28;20036;-70
2021/03/16 02:24:07;;;;;;;34.42;29.63;;;;;;;19.41;50.66;100658.22;2089779;28;20029;-70
2021/03/16 02:25:30;;;;;;;31.90;27.67;;;;;;;19.40;50.54;100660.09;2089968;28;20032;-69
2021/03/16 02:26:48;;;;;;;33.83;27.88;;;;;;;19.41;50.48;100659.06;2089974;28;20028;-70
2021/03/16 02:28:07;;;;;;;36.45;28.92;;;;;;;19.41;50.53;100663.69;2089833;28;20067;-70
2021/03/16 02:29:38;;;;;;;35.17;28.75;;;;;;;19.40;50.80;100667.41;2089783;28;20080;-70
2021/03/16 02:30:42;;;;;;;34.60;28.45;;;;;;;19.39;50.64;100654.75;2086347;28;20537;-70
2021/03/16 02:31:48;;;;;;;34.15;26.50;;;;;;;19.40;50.46;100661.94;2089785;28;20494;-70
2021/03/16 02:32:50;;;;;;;36.53;28.20;;;;;;;19.40;50.50;100656.47;2090014;28;20029;-70
2021/03/16 02:33:51;;;;;;;34.88;28.83;;;;;;;19.39;50.44;100661.06;2089739;28;20021;-69
2021/03/16 02:34:55;;;;;;;38.22;28.70;;;;;;;19.39;50.66;100657.47;2089306;28;20043;-69
2021/03/16 02:36:00;;;;;;;31.88;27.05;;;;;;;19.38;50.54;100659.38;2089244;28;20086;-70
2021/03/16 02:37:04;;;;;;;35.10;28.60;;;;;;;19.38;50.60;100653.03;2089716;28;20021;-70
2021/03/16 02:38:09;;;;;;;36.20;27.30;;;;;;;19.38;50.40;100655.78;2089736;28;20451;-70
2021/03/16 02:39:12;;;;;;;35.70;28.05;;;;;;;19.38;50.60;100662.09;2090067;28;20029;-70
2021/03/16 02:40:14;;;;;;;34.05;27.92;;;;;;;19.38;50.53;100659.38;2089781;28;20025;-69
2021/03/16 02:41:17;;;;;;;34.30;29.48;;;;;;;19.37;50.60;100656.75;2089821;28;20029;-70
2021/03/16 02:42:20;;;;;;;32.08;27.27;;;;;;;19.36;50.54;100665.97;2089643;28;20051;-70
2021/03/16 02:43:21;;;;;;;30.95;26.17;;;;;;;19.35;50.48;100661.50;2089769;28;20036;-70
2021/03/16 02:44:21;;;;;;;32.60;26.88;;;;;;;19.35;50.66;100661.50;2089817;28;20055;-70
2021/03/16 02:45:22;;;;;;;33.93;27.03;;;;;;;19.35;50.61;100664.22;2089900;28;20033;-69
2021/03/16 02:46:24;;;;;;;34.43;27.77;;;;;;;19.34;50.56;100662.50;2089988;28;20352;-69
2021/03/16 02:47:25;;;;;;;31.25;26.60;;;;;;;19.34;50.77;100657.91;2089674;28;20035;-70
2021/03/16 02:48:26;;;;;;;30.85;26.77;;;;;;;19.33;50.61;100661.66;2096056;28;20024;-69
2021/03/16 02:49:28;;;;;;;34.47;25.90;;;;;;;19.35;50.75;100666.94;2098023;28;20028;-69
2021/03/16 02:50:29;;;;;;;33.88;26.85;;;;;;;19.34;50.67;100663.38;2099704;28;20085;-70
2021/03/16 02:51:30;;;;;;;34.55;27.65;;;;;;;19.33;50.70;100660.75;2099739;28;20107;-70
2021/03/16 02:52:32;;;;;;;29.00;25.37;;;;;;;19.34;50.70;100662.50;2099625;28;20086;-70
2021/03/16 02:53:33;;;;;;;36.78;28.65;;;;;;;19.32;50.59;100664.50;2099728;28;20017;-70
2021/03/16 02:54:34;;;;;;;;;;;;;;;19.32;50.59;100661.78;2100261;28;20029;-70
2021/03/16 02:55:35;;;;;;;32.40;27.48;;;;;;;19.32;50.62;100665.38;2099632;28;19993;-70
2021/03/16 02:56:36;;;;;;;30.50;25.40;;;;;;;19.31;50.65;100665.53;2099697;28;20021;-70
2021/03/16 02:57:39;;;;;;;32.35;24.38;;;;;;;19.31;50.76;100657.31;2099813;28;20028;-70
2021/03/16 02:58:40;;;;;;;31.63;26.23;;;;;;;19.31;50.65;100660.06;2099765;28;20021;-70
2021/03/16 02:59:43;;;;;;;31.98;27.02;;;;;;;19.30;50.80;100658.31;2099663;28;20032;-70
2021/03/16 03:00:44;;;;;;;31.92;26.13;;;;;;;19.28;50.70;100664.78;2099579;28;20047;-70
2021/03/16 03:01:46;;;;;;;29.53;24.13;;;;;;;19.26;50.79;100655.84;2099665;28;20021;-70
2021/03/16 03:02:50;;;;;;;31.40;27.10;;;;;;;19.26;50.68;100661.31;2099591;28;20103;-70
2021/03/16 03:03:51;;;;;;;31.98;25.52;;;;;;;19.26;50.67;100655.00;2099882;28;20455;-70
2021/03/16 03:04:53;;;;;;;32.30;27.15;;;;;;;19.26;50.87;100661.31;2099661;28;20070;-70
2021/03/16 03:05:56;;;;;;;31.20;26.55;;;;;;;19.26;50.77;100661.31;2099746;28;20028;-69
2021/03/16 03:10:50;;;;;;;32.72;26.20;;;;;;;19.26;50.74;100661.31;2099740;28;20387;-69
2021/03/16 03:11:50;;;;;;;31.63;25.17;;;;;;;19.26;50.71;100666.78;2099736;28;20024;-70
2021/03/16 03:12:54;;;;;;;31.80;25.97;;;;;;;19.27;50.75;100665.78;2099573;28;20052;-70
2021/03/16 03:13:55;;;;;;;31.10;25.33;;;;;;;19.28;50.63;100670.25;2099565;28;20023;-70
2021/03/16 03:14:55;;;;;;;30.80;26.27;;;;;;;19.30;50.58;100667.38;2099631;28;20024;-69
2021/03/16 03:15:56;;;;;;;31.87;24.80;;;;;;;19.31;50.70;100668.25;2099479;28;20089;-70
2021/03/16 03:16:58;;;;;;;31.27;26.13;;;;;;;19.30;50.62;100669.25;2099599;28;20108;-70
2021/03/16 03:17:59;;;;;;;29.88;24.90;;;;;;;19.31;50.65;100673.72;2099532;28;20390;-70
2021/03/16 03:19:00;;;;;;;32.72;26.23;;;;;;;19.30;50.64;100677.44;2099371;28;20032;-70
2021/03/16 03:20:03;;;;;;;32.72;24.95;;;;;;;19.27;50.54;100665.78;2099581;28;20470;-69
2021/03/16 03:21:15;;;;;;;33.00;26.45;;;;;;;19.30;50.58;100671.97;2099468;28;20494;-69
2021/03/16 03:22:49;;;;;;;28.65;24.30;;;;;;;19.27;50.50;100673.97;2099469;28;20037;-71
2021/03/16 03:23:59;;;;;;;31.17;25.77;;;;;;;19.29;50.55;100662.91;2099404;28;20040;-70
2021/03/16 03:25:13;;;;;;;28.60;24.40;;;;;;;19.28;50.63;100674.88;2099498;28;20029;-70
2021/03/16 03:26:17;;;;;;;33.30;27.08;;;;;;;19.30;50.60;100664.63;2098607;28;20024;-70
2021/03/16 03:27:23;;;;;;;28.65;25.55;;;;;;;19.27;50.59;100663.03;2099225;28;20031;-70
2021/03/16 03:28:26;;;;;;;30.40;24.45;;;;;;;19.28;50.68;100674.88;2099456;28;20021;-70
2021/03/16 03:29:27;;;;;;;31.40;24.60;;;;;;;19.27;50.70;100662.19;2099600;28;20070;-70
2021/03/16 03:30:29;;;;;;;31.80;25.70;;;;;;;19.27;50.68;100668.50;2099547;28;20376;-69
2021/03/16 03:31:32;;;;;;;30.38;25.60;;;;;;;19.26;50.55;100669.53;2099500;28;20031;-69
2021/03/16 03:32:36;;;;;;;32.10;24.90;;;;;;;19.26;50.75;100672.25;2099413;28;20028;-70
2021/03/16 03:33:40;;;;;;;31.15;25.73;;;;;;;19.26;50.78;100655.84;2099361;28;20058;-70
2021/03/16 03:34:43;;;;;;;30.15;25.40;;;;;;;19.25;50.67;100659.56;2098663;28;20489;-70
2021/03/16 03:35:44;;;;;;;29.17;23.40;;;;;;;19.25;50.70;100654.09;2098860;28;20463;-69
2021/03/16 03:36:48;;;;;;;31.83;25.83;;;;;;;19.25;50.75;100654.09;2099479;28;20443;-70
2021/03/16 03:37:49;;;;;;;30.00;23.88;;;;;;;19.24;50.70;100651.53;2099411;28;20017;-69
2021/03/16 03:38:52;;;;;;;28.35;24.27;;;;;;;19.25;50.66;100661.44;2099355;28;20032;-70
2021/03/16 03:39:54;;;;;;;30.00;25.40;;;;;;;19.26;50.59;100660.47;2099452;28;20464;-69
2021/03/16 03:40:56;;;;;;;28.63;24.42;;;;;;;19.24;50.66;100646.91;2099419;28;20044;-70
2021/03/16 03:41:57;;;;;;;30.60;24.35;;;;;;;19.25;50.55;100658.72;2099500;28;20025;-67
2021/03/16 03:43:07;;;;;;;28.40;24.37;;;;;;;19.24;50.71;100655.13;2099349;28;20485;-68
2021/03/16 03:44:09;;;;;;;30.73;24.48;;;;;;;19.23;50.67;100656.13;2099236;28;20070;-68
2021/03/16 03:45:11;;;;;;;31.48;25.63;;;;;;;19.23;50.73;100661.59;2099302;28;20101;-69
2021/03/16 03:46:16;;;;;;;28.15;23.60;;;;;;;19.23;50.60;100661.59;2099268;28;20029;-68
2021/03/16 03:47:18;;;;;;;28.88;23.98;;;;;;;19.23;50.78;100656.13;2098870;28;20020;-68
2021/03/16 03:48:21;;;;;;;30.50;24.98;;;;;;;19.22;50.72;100659.00;2098695;28;20347;-68
2021/03/16 03:49:23;;;;;;;29.08;24.42;;;;;;;19.21;50.76;100655.41;2099366;28;20025;-68
2021/03/16 03:50:25;;;;;;;29.67;24.52;;;;;;;19.21;50.67;100663.59;2099266;28;20024;-68
2021/03/16 03:51:26;;;;;;;28.05;23.50;;;;;;;19.21;50.73;100663.59;2099338;28;20467;-68
2021/03/16 03:52:28;;;;;;;28.27;23.38;;;;;;;19.21;50.80;100663.59;2099251;28;20421;-69
2021/03/16 03:53:29;;;;;;;;;;;;;;;19.20;50.75;100655.53;2099855;28;20020;-69
2021/03/16 03:54:31;;;;;;;28.55;22.83;;;;;;;19.20;50.70;100669.19;2099167;28;19986;-69
2021/03/16 03:55:32;;;;;;;29.30;22.50;;;;;;;19.20;50.82;100667.31;2099296;28;20450;-69
2021/03/16 03:56:35;;;;;;;29.90;23.02;;;;;;;19.20;50.77;100661.00;2099235;28;20028;-69
2021/03/16 03:57:38;;;;;;;30.13;23.95;;;;;;;19.19;50.72;100670.22;2099302;28;20133;-70
2021/03/16 03:58:40;;;;;;;27.88;22.70;;;;;;;19.18;50.74;100674.81;2099385;28;20016;-69
2021/03/16 03:59:46;;;;;;;29.08;23.40;;;;;;;19.18;50.77;100674.81;2099203;28;20020;-69
2021/03/16 04:00:48;;;;;;;27.27;23.40;;;;;;;19.18;50.91;100679.38;2098677;28;20020;-70
2021/03/16 04:01:49;;;;;;;27.75;23.50;;;;;;;19.18;50.93;100679.38;2099200;28;20017;-69
2021/03/16 04:02:52;;;;;;;26.38;22.27;;;;;;;19.17;50.91;100681.25;2099086;28;20032;-69
2021/03/16 04:03:52;;;;;;;26.27;21.80;;;;;;;19.17;50.91;100689.47;2099247;28;20072;-69
2021/03/16 04:04:55;;;;;;;26.10;22.57;;;;;;;19.16;50.95;100685.00;2099168;28;20029;-69
2021/03/16 04:05:56;;;;;;;27.77;23.52;;;;;;;19.17;50.89;100684.00;2099174;28;20017;-70
2021/03/16 04:06:58;;;;;;;27.90;22.60;;;;;;;19.16;50.77;100685.00;2099036;28;20040;-69
2021/03/16 04:08:01;;;;;;;30.25;23.40;;;;;;;19.16;50.74;100693.22;2098930;28;20032;-69
2021/03/16 04:09:04;;;;;;;29.95;22.60;;;;;;;19.16;50.80;100687.75;2099114;28;20081;-69
2021/03/16 04:10:09;;;;;;;26.67;22.77;;;;;;;19.16;50.76;100687.75;2099249;28;20021;-69
2021/03/16 04:11:11;;;;;;;29.58;23.30;;;;;;;19.15;50.94;100686.00;2099038;28;20040;-69
2021/03/16 04:12:11;;;;;;;24.77;20.23;;;;;;;19.15;50.88;100686.00;2099087;28;20016;-69
2021/03/16 04:13:12;;;;;;;26.20;22.33;;;;;;;19.16;50.83;100690.47;2099167;28;20096;-69
2021/03/16 04:14:13;;;;;;;27.20;22.13;;;;;;;19.15;50.96;100691.47;2099104;28;20025;-69
2021/03/16 04:15:15;;;;;;;27.38;22.42;;;;;;;19.15;50.91;100694.19;2099398;28;20329;-69
2021/03/16 04:16:17;;;;;;;26.73;21.77;;;;;;;19.14;50.87;100689.75;2099069;28;20029;-69
2021/03/16 04:17:18;;;;;;;26.00;21.67;;;;;;;19.13;50.86;100690.72;2099213;28;20126;-69
2021/03/16 04:18:18;;;;;;;30.80;22.90;;;;;;;19.13;50.98;100687.13;2099077;28;20033;-69
2021/03/16 04:19:19;;;;;;;27.77;23.87;;;;;;;19.12;50.88;100690.88;2098340;28;20457;-69
2021/03/16 04:20:20;;;;;;;27.33;22.50;;;;;;;19.13;50.85;100693.47;2098379;28;20149;-70
2021/03/16 04:21:20;;;;;;;25.23;22.03;;;;;;;19.13;50.88;100701.66;2099017;28;20032;-70
2021/03/16 04:22:27;;;;;;;27.70;22.97;;;;;;;19.13;50.82;100693.47;2099051;28;20070;-69
2021/03/16 04:23:28;;;;;;;27.45;22.77;;;;;;;19.12;51.04;100699.94;2099163;28;20016;-69
2021/03/16 04:24:29;;;;;;;28.63;23.30;;;;;;;19.12;50.99;100704.53;2098343;28;20042;-69
2021/03/16 04:25:29;;;;;;;25.53;22.00;;;;;;;19.11;50.85;100700.06;2098356;28;20016;-69
2021/03/16 04:26:29;;;;;;;29.80;23.57;;;;;;;19.11;51.03;100700.97;2098519;28;20774;-70
2021/03/16 04:27:30;;;;;;;27.37;22.60;;;;;;;19.11;51.05;100694.59;2098457;28;20156;-69
2021/03/16 04:28:31;;;;;;;25.70;21.73;;;;;;;19.09;50.92;100692.03;2099089;28;20025;-69
2021/03/16 04:29:31;;;;;;;29.20;23.07;;;;;;;19.10;50.87;100704.66;2099087;28;20514;-69
2021/03/16 04:30:32;;;;;;;29.63;24.37;;;;;;;19.10;51.06;100701.94;2098903;28;20021;-70
2021/03/16 04:31:32;;;;;;;27.13;21.43;;;;;;;19.10;50.99;100704.66;2098319;28;20021;-69
2021/03/16 04:32:39;;;;;;;26.40;21.53;;;;;;;19.09;50.90;100704.81;2098523;28;20107;-69
2021/03/16 04:33:39;;;;;;;28.45;22.38;;;;;;;19.09;50.96;100702.09;2099040;28;20021;-69
2021/03/16 04:34:40;;;;;;;24.77;21.30;;;;;;;19.08;50.98;100701.19;2098824;28;20040;-69
2021/03/16 04:35:40;;;;;;;28.30;22.30;;;;;;;19.08;51.14;100709.41;2098962;28;20484;-70
2021/03/16 04:36:41;;;;;;;26.47;22.87;;;;;;;19.08;51.07;100705.81;2099141;28;20032;-69
2021/03/16 04:37:41;;;;;;;26.90;21.57;;;;;;;19.08;51.00;100706.66;2098887;28;20012;-70
2021/03/16 04:38:41;;;;;;;27.83;21.63;;;;;;;19.09;50.94;100719.34;2098927;28;20483;-69
2021/03/16 04:39:42;;;;;;;24.97;20.47;;;;;;;19.10;51.12;100709.28;2099042;28;20023;-69
2021/03/16 04:40:44;;;;;;;27.87;22.43;;;;;;;19.09;50.92;100723.97;2098825;28;20090;-69
2021/03/16 04:41:44;;;;;;;24.85;20.63;;;;;;;19.10;51.09;100726.53;2098988;28;20020;-69
2021/03/16 04:42:45;;;;;;;26.57;21.20;;;;;;;19.10;50.90;100723.78;2098926;28;20028;-70
2021/03/16 04:43:45;;;;;;;24.43;20.33;;;;;;;19.09;51.14;100719.34;2098938;28;20483;-69
2021/03/16 04:44:46;;;;;;;25.37;22.47;;;;;;;19.11;50.95;100716.47;2099057;28;20046;-69
2021/03/16 04:45:46;;;;;;;27.20;21.90;;;;;;;19.10;50.98;100723.78;2098800;28;20055;-69
2021/03/16 04:46:47;;;;;;;27.23;22.40;;;;;;;19.11;50.89;100728.28;2098789;28;20085;-69
2021/03/16 04:47:47;;;;;;;25.27;21.13;;;;;;;19.10;50.97;100726.53;2098845;28;20071;-69
2021/03/16 04:48:47;;;;;;;26.90;22.87;;;;;;;19.10;51.00;100726.53;2090024;28;20020;-70